• Join FlightAware (Why Join?)
  • Login
  • US Flag 
01:07AM EDT


 

Airport Tracker/Info


-or-


 

Live Flight TrackerFlight Track Log ✈ LOT393 ✈ 03-May-2012 ✈ EPWA / WAW - EDDH / HAM

Flight Track Log - Related Links

Times and Time Zones

All times are in EDT time to prevent confusion due to time zone crossing. See the LOT393 flight status page for this flight to view local times or setup timezone preferences in your user account.

Time Position Orientation Groundspeed Altitude Reporting Facility
EDT Latitude Longitude Course Direction KTS MPH feet Rate Location/Type
11:23AM 52.1726 20.9304 287° West  Level Estimated
11:24AM 52.1997 20.7833 287° West  Level Estimated
11:25AM 52.2266 20.6360 287° West  Level Estimated
11:26AM 52.2533 20.4885 286° West  Level Estimated
11:27AM 52.2799 20.3409 286° West  Level Estimated
11:28AM 52.3063 20.1931 286° West  Level Estimated
11:29AM 52.3325 20.0451 286° West  Level Estimated
11:30AM 52.3585 19.8969 286° West  Level Estimated
11:31AM 52.3843 19.7486 286° West  Level Estimated
11:32AM 52.4099 19.6001 286° West  Level Estimated
11:33AM 52.4353 19.4514 286° West  Level Estimated
11:34AM 52.4606 19.3025 285° West  Level Estimated
11:35AM 52.4857 19.1535 285° West  Level Estimated
11:36AM 52.5106 19.0043 285° West  Level Estimated
11:37AM 52.5353 18.8549 285° West  Level Estimated
11:38AM 52.5598 18.7054 285° West  Level Estimated
11:39AM 52.5841 18.5557 285° West  Level Estimated
11:40AM 52.6082 18.4058 285° West  Level Estimated
11:41AM 52.6322 18.2558 285° West  Level Estimated
11:42AM 52.6559 18.1056 285° West  Level Estimated
11:43AM 52.6795 17.9553 284° West  Level Estimated
11:44AM 52.7028 17.8048 284° West  Level Estimated
11:45AM 52.7260 17.6541 284° West  Level Estimated
11:46AM 52.7490 17.5032 284° West  Level Estimated
11:47AM 52.7718 17.3522 284° West  Level Estimated
11:48AM 52.7944 17.2011 284° West  Level Estimated
11:49AM 52.8168 17.0498 284° West  Level Estimated
11:50AM 52.8390 16.8983 284° West  Level Estimated
11:51AM 52.8611 16.7467 283° West  Level Estimated
11:52AM 52.8829 16.5949 283° West  Level Estimated
11:53AM 52.9045 16.4430 283° West  Level Estimated
11:54AM 52.9260 16.2909 283° West  Level Estimated
11:55AM 52.9472 16.1387 283° West  Level Estimated
11:56AM 52.9683 15.9863 283° West  Level Estimated
11:57AM 52.9892 15.8338 283° West  Level Estimated
11:58AM 53.0098 15.6811 283° West  Level Estimated
11:59AM 53.0303 15.5283 282° West  Level Estimated
12:00PM 53.0506 15.3754 282° West  Level Estimated
12:01PM 53.0707 15.2223 282° West  Level Estimated
12:02PM 53.0905 15.0690 282° West  Level Estimated
12:03PM 53.1102 14.9156 282° West  Level Estimated
12:04PM 53.1297 14.7621 282° West  Level Estimated
12:05PM 53.1490 14.6084 282° West  Level Estimated
12:06PM 53.1681 14.4546 282° West  Level Estimated
12:07PM 53.1870 14.3007 282° West  Level Estimated
12:08PM 53.2057 14.1466 281° West  Level Estimated
12:09PM 53.2242 13.9924 281° West  Level Estimated
12:10PM 53.2425 13.8381 281° West  Level Estimated
12:11PM 53.2606 13.6836 281° West  Level Estimated
12:12PM 53.2785 13.5290 281° West  Level Estimated
12:13PM 53.2962 13.3743 281° West  Level Estimated
12:14PM 53.3137 13.2194 281° West  Level Estimated
12:15PM 53.3310 13.0645 281° West  Level Estimated
12:16PM 53.3481 12.9093 280° West  Level Estimated
12:17PM 53.3650 12.7541 280° West  Level Estimated
12:18PM 53.3817 12.5988 280° West  Level Estimated
12:19PM 53.3982 12.4433 280° West  Level Estimated
12:20PM 53.4145 12.2877 280° West  Level Estimated
12:21PM 53.4306 12.1320 280° West  Level Estimated
12:22PM 53.4464 11.9761 280° West  Level Estimated
12:23PM 53.4621 11.8202 280° West  Level Estimated
12:24PM 53.4776 11.6641 279° West  Level Estimated
12:25PM 53.4929 11.5080 279° West  Level Estimated
12:26PM 53.5080 11.3517 279° West  Level Estimated
12:27PM 53.5228 11.1953 279° West  Level Estimated
12:28PM 53.5375 11.0388 279° West  Level Estimated
12:29PM 53.5519 10.8821 279° West  Level Estimated
12:30PM 53.5662 10.7254 279° West  Level Estimated
12:31PM 53.5802 10.5686 279° West  Level Estimated
12:32PM 53.5941 10.4117 278° West  Level Estimated
12:33PM 53.6077 10.2546 278° West  Level Estimated
12:34PM 53.6212 10.0975 278° West  Level Estimated
12:35PM 53.6344 9.9403 98° East  Level Estimated
12:36PM 53.6212 10.0975 278° West  Level Estimated
12:37PM 53.6344 9.9403 98° East  Level Estimated
12:38PM 53.6212 10.0975 278° West  Level Estimated
12:39PM 53.6344 9.9403 98° East  Level Estimated
12:40PM 53.6212 10.0975 278° West  Level Estimated
12:41PM 53.6344 9.9403 98° East  Level Estimated
12:42PM 53.6212 10.0975 278° West  Level Estimated
12:43PM 53.6344 9.9403 98° East  Level Estimated
12:44PM 53.6212 10.0975 278° West  Level Estimated
12:45PM 53.6344 9.9403 98° East  Level Estimated
12:46PM 53.6212 10.0975 278° West  Level Estimated
12:47PM 53.6344 9.9403 278° West  Level Estimated